sensor_id;sensor_type;location;lat;lon;timestamp;P1;durP1;ratioP1;P2;durP2;ratioP2
32705;SDS011;19094;50.972;3.538;2023-09-19T00:00:37;8.35;;;2.35;;
32705;SDS011;19094;50.972;3.538;2023-09-19T00:03:07;9.63;;;2.50;;
32705;SDS011;19094;50.972;3.538;2023-09-19T00:05:34;8.50;;;2.97;;
32705;SDS011;19094;50.972;3.538;2023-09-19T00:08:01;7.40;;;2.40;;
32705;SDS011;19094;50.972;3.538;2023-09-19T00:10:31;7.47;;;2.47;;
32705;SDS011;19094;50.972;3.538;2023-09-19T00:13:00;9.77;;;2.60;;
32705;SDS011;19094;50.972;3.538;2023-09-19T00:15:30;13.40;;;2.47;;
32705;SDS011;19094;50.972;3.538;2023-09-19T00:18:02;9.43;;;2.35;;
32705;SDS011;19094;50.972;3.538;2023-09-19T00:20:31;9.88;;;2.85;;
32705;SDS011;19094;50.972;3.538;2023-09-19T00:22:57;10.00;;;2.38;;
32705;SDS011;19094;50.972;3.538;2023-09-19T00:25:27;10.25;;;2.85;;
32705;SDS011;19094;50.972;3.538;2023-09-19T00:27:54;6.57;;;2.10;;
32705;SDS011;19094;50.972;3.538;2023-09-19T00:30:20;11.93;;;3.10;;
32705;SDS011;19094;50.972;3.538;2023-09-19T00:32:46;9.00;;;2.35;;
32705;SDS011;19094;50.972;3.538;2023-09-19T00:35:13;9.25;;;2.78;;
32705;SDS011;19094;50.972;3.538;2023-09-19T00:37:42;15.20;;;3.13;;
32705;SDS011;19094;50.972;3.538;2023-09-19T00:40:08;12.32;;;3.13;;
32705;SDS011;19094;50.972;3.538;2023-09-19T00:42:47;12.18;;;2.80;;
32705;SDS011;19094;50.972;3.538;2023-09-19T00:45:14;13.32;;;3.22;;
32705;SDS011;19094;50.972;3.538;2023-09-19T00:47:42;9.63;;;2.67;;
32705;SDS011;19094;50.972;3.538;2023-09-19T00:50:14;8.88;;;2.80;;
32705;SDS011;19094;50.972;3.538;2023-09-19T00:52:42;9.43;;;3.10;;
32705;SDS011;19094;50.972;3.538;2023-09-19T00:55:09;9.35;;;3.03;;
32705;SDS011;19094;50.972;3.538;2023-09-19T00:57:36;13.93;;;2.90;;
32705;SDS011;19094;50.972;3.538;2023-09-19T01:00:06;9.88;;;3.30;;
32705;SDS011;19094;50.972;3.538;2023-09-19T01:02:36;13.90;;;2.83;;
32705;SDS011;19094;50.972;3.538;2023-09-19T01:05:02;11.98;;;3.17;;
32705;SDS011;19094;50.972;3.538;2023-09-19T01:07:29;12.35;;;3.00;;
32705;SDS011;19094;50.972;3.538;2023-09-19T01:10:00;12.18;;;3.47;;
32705;SDS011;19094;50.972;3.538;2023-09-19T01:12:30;6.13;;;2.15;;
32705;SDS011;19094;50.972;3.538;2023-09-19T01:15:18;10.32;;;2.85;;
32705;SDS011;19094;50.972;3.538;2023-09-19T01:29:36;9.50;;;3.05;;
32705;SDS011;19094;50.972;3.538;2023-09-19T01:32:08;11.80;;;3.30;;
32705;SDS011;19094;50.972;3.538;2023-09-19T01:37:14;12.65;;;2.97;;
32705;SDS011;19094;50.972;3.538;2023-09-19T01:39:44;14.68;;;2.97;;
32705;SDS011;19094;50.972;3.538;2023-09-19T01:42:21;13.43;;;3.20;;
32705;SDS011;19094;50.972;3.538;2023-09-19T01:45:07;11.88;;;3.13;;
32705;SDS011;19094;50.972;3.538;2023-09-19T01:55:58;11.70;;;2.95;;
32705;SDS011;19094;50.972;3.538;2023-09-19T02:01:00;10.77;;;3.10;;
32705;SDS011;19094;50.972;3.538;2023-09-19T02:03:26;14.18;;;3.10;;
32705;SDS011;19094;50.972;3.538;2023-09-19T02:05:53;9.15;;;2.80;;
32705;SDS011;19094;50.972;3.538;2023-09-19T02:08:20;11.98;;;2.92;;
32705;SDS011;19094;50.972;3.538;2023-09-19T02:10:50;15.18;;;3.33;;
32705;SDS011;19094;50.972;3.538;2023-09-19T02:13:16;13.50;;;3.67;;
32705;SDS011;19094;50.972;3.538;2023-09-19T02:15:43;10.25;;;2.95;;
32705;SDS011;19094;50.972;3.538;2023-09-19T02:18:14;10.10;;;3.17;;
32705;SDS011;19094;50.972;3.538;2023-09-19T02:20:40;11.70;;;3.20;;
32705;SDS011;19094;50.972;3.538;2023-09-19T02:23:07;16.23;;;3.20;;
32705;SDS011;19094;50.972;3.538;2023-09-19T02:25:33;15.60;;;3.17;;
32705;SDS011;19094;50.972;3.538;2023-09-19T02:28:00;15.38;;;3.60;;
32705;SDS011;19094;50.972;3.538;2023-09-19T02:30:27;12.10;;;3.15;;
32705;SDS011;19094;50.972;3.538;2023-09-19T02:32:53;11.35;;;2.85;;
32705;SDS011;19094;50.972;3.538;2023-09-19T02:35:19;8.90;;;2.80;;
32705;SDS011;19094;50.972;3.538;2023-09-19T02:37:45;8.88;;;2.95;;
32705;SDS011;19094;50.972;3.538;2023-09-19T02:40:11;14.98;;;3.00;;
32705;SDS011;19094;50.972;3.538;2023-09-19T02:42:52;11.85;;;2.90;;
32705;SDS011;19094;50.972;3.538;2023-09-19T02:45:19;13.23;;;2.95;;
32705;SDS011;19094;50.972;3.538;2023-09-19T02:47:45;7.65;;;2.55;;
32705;SDS011;19094;50.972;3.538;2023-09-19T02:50:12;9.68;;;2.95;;
32705;SDS011;19094;50.972;3.538;2023-09-19T02:52:41;9.20;;;2.95;;
32705;SDS011;19094;50.972;3.538;2023-09-19T02:55:14;13.68;;;3.25;;
32705;SDS011;19094;50.972;3.538;2023-09-19T02:57:47;7.32;;;2.60;;
32705;SDS011;19094;50.972;3.538;2023-09-19T03:00:14;10.73;;;2.67;;
32705;SDS011;19094;50.972;3.538;2023-09-19T03:02:41;13.65;;;3.17;;
32705;SDS011;19094;50.972;3.538;2023-09-19T03:05:11;10.00;;;2.45;;
32705;SDS011;19094;50.972;3.538;2023-09-19T03:07:37;5.53;;;2.20;;
32705;SDS011;19094;50.972;3.538;2023-09-19T03:10:03;12.55;;;3.05;;
32705;SDS011;19094;50.972;3.538;2023-09-19T03:12:30;9.82;;;2.80;;
32705;SDS011;19094;50.972;3.538;2023-09-19T03:14:57;10.77;;;2.65;;
32705;SDS011;19094;50.972;3.538;2023-09-19T03:17:22;11.15;;;3.15;;
32705;SDS011;19094;50.972;3.538;2023-09-19T03:19:48;14.27;;;2.78;;
32705;SDS011;19094;50.972;3.538;2023-09-19T03:22:14;14.43;;;3.22;;
32705;SDS011;19094;50.972;3.538;2023-09-19T03:24:40;11.65;;;3.17;;
32705;SDS011;19094;50.972;3.538;2023-09-19T03:27:11;8.77;;;3.13;;
32705;SDS011;19094;50.972;3.538;2023-09-19T03:29:40;12.10;;;3.20;;
32705;SDS011;19094;50.972;3.538;2023-09-19T03:32:07;8.23;;;2.30;;
32705;SDS011;19094;50.972;3.538;2023-09-19T03:34:35;15.05;;;3.65;;
32705;SDS011;19094;50.972;3.538;2023-09-19T03:37:03;18.27;;;3.55;;
32705;SDS011;19094;50.972;3.538;2023-09-19T03:39:29;8.73;;;2.83;;
32705;SDS011;19094;50.972;3.538;2023-09-19T03:41:54;7.80;;;2.65;;
32705;SDS011;19094;50.972;3.538;2023-09-19T03:44:20;10.43;;;2.85;;
32705;SDS011;19094;50.972;3.538;2023-09-19T03:46:46;13.65;;;3.38;;
32705;SDS011;19094;50.972;3.538;2023-09-19T03:49:11;13.70;;;3.10;;
32705;SDS011;19094;50.972;3.538;2023-09-19T03:51:37;13.90;;;2.95;;
32705;SDS011;19094;50.972;3.538;2023-09-19T03:54:06;13.65;;;3.33;;
32705;SDS011;19094;50.972;3.538;2023-09-19T03:56:32;13.43;;;3.58;;
32705;SDS011;19094;50.972;3.538;2023-09-19T03:58:58;14.93;;;2.90;;
32705;SDS011;19094;50.972;3.538;2023-09-19T04:01:24;13.45;;;3.22;;
32705;SDS011;19094;50.972;3.538;2023-09-19T04:03:49;14.20;;;2.78;;
32705;SDS011;19094;50.972;3.538;2023-09-19T04:06:16;8.90;;;2.90;;
32705;SDS011;19094;50.972;3.538;2023-09-19T04:08:42;15.65;;;3.40;;
32705;SDS011;19094;50.972;3.538;2023-09-19T04:11:09;14.27;;;3.20;;
32705;SDS011;19094;50.972;3.538;2023-09-19T04:13:35;11.88;;;3.28;;
32705;SDS011;19094;50.972;3.538;2023-09-19T04:16:01;12.45;;;2.58;;
32705;SDS011;19094;50.972;3.538;2023-09-19T04:18:37;12.60;;;2.58;;
32705;SDS011;19094;50.972;3.538;2023-09-19T04:21:04;13.65;;;3.15;;
32705;SDS011;19094;50.972;3.538;2023-09-19T04:23:31;20.05;;;3.35;;
32705;SDS011;19094;50.972;3.538;2023-09-19T04:25:57;17.02;;;3.20;;
32705;SDS011;19094;50.972;3.538;2023-09-19T04:28:23;14.18;;;3.67;;
32705;SDS011;19094;50.972;3.538;2023-09-19T04:30:49;9.93;;;2.78;;
32705;SDS011;19094;50.972;3.538;2023-09-19T04:33:15;11.63;;;2.92;;
32705;SDS011;19094;50.972;3.538;2023-09-19T04:35:41;12.85;;;3.80;;
32705;SDS011;19094;50.972;3.538;2023-09-19T04:38:09;9.40;;;2.83;;
32705;SDS011;19094;50.972;3.538;2023-09-19T04:40:35;11.68;;;3.25;;
32705;SDS011;19094;50.972;3.538;2023-09-19T04:43:00;17.92;;;3.60;;
32705;SDS011;19094;50.972;3.538;2023-09-19T04:45:26;12.88;;;3.10;;
32705;SDS011;19094;50.972;3.538;2023-09-19T04:47:53;16.17;;;3.45;;
32705;SDS011;19094;50.972;3.538;2023-09-19T04:50:19;15.05;;;3.80;;
32705;SDS011;19094;50.972;3.538;2023-09-19T04:52:52;18.52;;;2.97;;
32705;SDS011;19094;50.972;3.538;2023-09-19T04:55:18;12.93;;;3.60;;
32705;SDS011;19094;50.972;3.538;2023-09-19T04:57:48;12.25;;;3.22;;
32705;SDS011;19094;50.972;3.538;2023-09-19T05:00:16;14.32;;;3.30;;
32705;SDS011;19094;50.972;3.538;2023-09-19T05:02:44;15.07;;;3.33;;
32705;SDS011;19094;50.972;3.538;2023-09-19T05:05:11;16.27;;;3.35;;
32705;SDS011;19094;50.972;3.538;2023-09-19T05:07:41;16.85;;;3.47;;
32705;SDS011;19094;50.972;3.538;2023-09-19T05:10:08;14.43;;;3.90;;
32705;SDS011;19094;50.972;3.538;2023-09-19T05:12:35;9.38;;;3.17;;
32705;SDS011;19094;50.972;3.538;2023-09-19T05:15:04;13.50;;;3.50;;
32705;SDS011;19094;50.972;3.538;2023-09-19T05:17:34;16.20;;;3.38;;
32705;SDS011;19094;50.972;3.538;2023-09-19T05:20:00;17.90;;;3.20;;
32705;SDS011;19094;50.972;3.538;2023-09-19T05:22:43;10.50;;;3.42;;
32705;SDS011;19094;50.972;3.538;2023-09-19T05:25:11;13.48;;;3.10;;
32705;SDS011;19094;50.972;3.538;2023-09-19T05:27:42;12.65;;;3.17;;
32705;SDS011;19094;50.972;3.538;2023-09-19T05:30:08;12.25;;;3.13;;
32705;SDS011;19094;50.972;3.538;2023-09-19T05:32:34;9.82;;;3.33;;
32705;SDS011;19094;50.972;3.538;2023-09-19T05:35:00;21.38;;;3.13;;
32705;SDS011;19094;50.972;3.538;2023-09-19T05:37:26;9.20;;;3.00;;
32705;SDS011;19094;50.972;3.538;2023-09-19T05:39:52;17.00;;;3.08;;
32705;SDS011;19094;50.972;3.538;2023-09-19T05:42:18;11.45;;;3.47;;
32705;SDS011;19094;50.972;3.538;2023-09-19T05:44:44;19.05;;;3.53;;
32705;SDS011;19094;50.972;3.538;2023-09-19T05:47:10;14.75;;;3.08;;
32705;SDS011;19094;50.972;3.538;2023-09-19T05:49:35;10.40;;;2.95;;
32705;SDS011;19094;50.972;3.538;2023-09-19T05:52:07;9.75;;;2.78;;
32705;SDS011;19094;50.972;3.538;2023-09-19T05:54:33;13.15;;;2.65;;
32705;SDS011;19094;50.972;3.538;2023-09-19T05:57:02;10.30;;;2.95;;
32705;SDS011;19094;50.972;3.538;2023-09-19T05:59:28;10.95;;;3.05;;
32705;SDS011;19094;50.972;3.538;2023-09-19T06:01:54;14.85;;;3.30;;
32705;SDS011;19094;50.972;3.538;2023-09-19T06:04:20;16.70;;;3.22;;
32705;SDS011;19094;50.972;3.538;2023-09-19T06:06:46;7.43;;;2.70;;
32705;SDS011;19094;50.972;3.538;2023-09-19T06:09:13;13.05;;;2.70;;
32705;SDS011;19094;50.972;3.538;2023-09-19T06:11:41;12.77;;;3.40;;
32705;SDS011;19094;50.972;3.538;2023-09-19T06:14:07;13.13;;;2.85;;
32705;SDS011;19094;50.972;3.538;2023-09-19T06:16:33;14.00;;;3.20;;
32705;SDS011;19094;50.972;3.538;2023-09-19T06:18:58;8.30;;;2.88;;
32705;SDS011;19094;50.972;3.538;2023-09-19T06:21:27;10.13;;;2.67;;
32705;SDS011;19094;50.972;3.538;2023-09-19T06:23:53;14.52;;;3.50;;
32705;SDS011;19094;50.972;3.538;2023-09-19T06:26:19;17.00;;;2.65;;
32705;SDS011;19094;50.972;3.538;2023-09-19T06:28:45;11.23;;;2.90;;
32705;SDS011;19094;50.972;3.538;2023-09-19T06:31:10;13.07;;;2.88;;
32705;SDS011;19094;50.972;3.538;2023-09-19T06:33:37;14.48;;;3.47;;
32705;SDS011;19094;50.972;3.538;2023-09-19T06:36:08;13.60;;;3.13;;
32705;SDS011;19094;50.972;3.538;2023-09-19T06:38:34;17.92;;;3.30;;
32705;SDS011;19094;50.972;3.538;2023-09-19T06:41:01;14.35;;;2.95;;
32705;SDS011;19094;50.972;3.538;2023-09-19T06:43:31;7.97;;;2.67;;
32705;SDS011;19094;50.972;3.538;2023-09-19T06:45:57;13.48;;;3.72;;
32705;SDS011;19094;50.972;3.538;2023-09-19T06:48:24;9.90;;;2.92;;
32705;SDS011;19094;50.972;3.538;2023-09-19T06:50:50;16.23;;;2.67;;
32705;SDS011;19094;50.972;3.538;2023-09-19T06:53:17;14.48;;;2.80;;
32705;SDS011;19094;50.972;3.538;2023-09-19T06:55:43;10.05;;;3.00;;
32705;SDS011;19094;50.972;3.538;2023-09-19T06:58:10;11.48;;;2.90;;
32705;SDS011;19094;50.972;3.538;2023-09-19T07:00:36;14.35;;;3.28;;
32705;SDS011;19094;50.972;3.538;2023-09-19T07:05:35;13.02;;;3.15;;
32705;SDS011;19094;50.972;3.538;2023-09-19T07:08:03;10.63;;;2.97;;
32705;SDS011;19094;50.972;3.538;2023-09-19T07:10:31;12.35;;;3.03;;
32705;SDS011;19094;50.972;3.538;2023-09-19T07:13:02;14.18;;;2.85;;
32705;SDS011;19094;50.972;3.538;2023-09-19T07:15:29;12.75;;;3.15;;
32705;SDS011;19094;50.972;3.538;2023-09-19T07:17:58;12.23;;;3.45;;
32705;SDS011;19094;50.972;3.538;2023-09-19T07:20:25;9.45;;;2.75;;
32705;SDS011;19094;50.972;3.538;2023-09-19T07:22:52;12.23;;;3.20;;
32705;SDS011;19094;50.972;3.538;2023-09-19T07:25:20;10.70;;;2.78;;
32705;SDS011;19094;50.972;3.538;2023-09-19T07:27:46;17.33;;;3.08;;
32705;SDS011;19094;50.972;3.538;2023-09-19T07:30:12;11.27;;;3.00;;
32705;SDS011;19094;50.972;3.538;2023-09-19T07:32:39;9.73;;;2.95;;
32705;SDS011;19094;50.972;3.538;2023-09-19T07:35:06;11.15;;;3.08;;
32705;SDS011;19094;50.972;3.538;2023-09-19T07:37:32;11.52;;;2.85;;
32705;SDS011;19094;50.972;3.538;2023-09-19T07:40:01;15.60;;;3.63;;
32705;SDS011;19094;50.972;3.538;2023-09-19T07:42:32;12.77;;;2.90;;
32705;SDS011;19094;50.972;3.538;2023-09-19T07:45:05;6.53;;;2.72;;
32705;SDS011;19094;50.972;3.538;2023-09-19T07:47:33;13.68;;;2.90;;
32705;SDS011;19094;50.972;3.538;2023-09-19T07:49:59;9.63;;;3.10;;
32705;SDS011;19094;50.972;3.538;2023-09-19T07:52:27;12.98;;;3.20;;
32705;SDS011;19094;50.972;3.538;2023-09-19T07:54:54;8.73;;;2.72;;
32705;SDS011;19094;50.972;3.538;2023-09-19T07:57:19;17.95;;;3.72;;
32705;SDS011;19094;50.972;3.538;2023-09-19T07:59:45;16.17;;;2.30;;
32705;SDS011;19094;50.972;3.538;2023-09-19T08:02:11;11.82;;;2.92;;
32705;SDS011;19094;50.972;3.538;2023-09-19T08:04:43;11.85;;;2.97;;
32705;SDS011;19094;50.972;3.538;2023-09-19T08:07:11;19.05;;;2.65;;
32705;SDS011;19094;50.972;3.538;2023-09-19T08:09:38;11.57;;;2.90;;
32705;SDS011;19094;50.972;3.538;2023-09-19T08:12:04;8.15;;;2.42;;
32705;SDS011;19094;50.972;3.538;2023-09-19T08:14:32;12.10;;;2.72;;
32705;SDS011;19094;50.972;3.538;2023-09-19T08:16:58;11.77;;;2.95;;
32705;SDS011;19094;50.972;3.538;2023-09-19T08:19:25;11.68;;;2.83;;
32705;SDS011;19094;50.972;3.538;2023-09-19T08:21:56;17.65;;;2.78;;
32705;SDS011;19094;50.972;3.538;2023-09-19T08:24:26;9.40;;;2.50;;
32705;SDS011;19094;50.972;3.538;2023-09-19T08:26:55;14.35;;;2.70;;
32705;SDS011;19094;50.972;3.538;2023-09-19T08:29:22;9.90;;;3.00;;
32705;SDS011;19094;50.972;3.538;2023-09-19T08:31:55;11.63;;;2.92;;
32705;SDS011;19094;50.972;3.538;2023-09-19T08:34:22;9.85;;;2.80;;
32705;SDS011;19094;50.972;3.538;2023-09-19T08:36:52;13.90;;;2.33;;
32705;SDS011;19094;50.972;3.538;2023-09-19T08:39:22;13.95;;;2.88;;
32705;SDS011;19094;50.972;3.538;2023-09-19T08:41:48;11.00;;;2.80;;
32705;SDS011;19094;50.972;3.538;2023-09-19T08:44:14;20.05;;;2.72;;
32705;SDS011;19094;50.972;3.538;2023-09-19T08:46:41;11.05;;;2.60;;
32705;SDS011;19094;50.972;3.538;2023-09-19T08:49:12;11.30;;;2.72;;
32705;SDS011;19094;50.972;3.538;2023-09-19T08:51:50;6.03;;;2.50;;
32705;SDS011;19094;50.972;3.538;2023-09-19T08:54:25;11.20;;;2.83;;
32705;SDS011;19094;50.972;3.538;2023-09-19T08:56:54;10.07;;;2.60;;
32705;SDS011;19094;50.972;3.538;2023-09-19T08:59:24;12.10;;;2.13;;
32705;SDS011;19094;50.972;3.538;2023-09-19T09:01:55;7.05;;;2.10;;
32705;SDS011;19094;50.972;3.538;2023-09-19T09:04:22;13.13;;;2.40;;
32705;SDS011;19094;50.972;3.538;2023-09-19T09:06:49;16.02;;;3.20;;
32705;SDS011;19094;50.972;3.538;2023-09-19T09:09:18;12.18;;;2.67;;
32705;SDS011;19094;50.972;3.538;2023-09-19T09:11:45;10.00;;;2.33;;
32705;SDS011;19094;50.972;3.538;2023-09-19T09:14:13;10.73;;;2.88;;
32705;SDS011;19094;50.972;3.538;2023-09-19T09:16:39;11.15;;;2.50;;
32705;SDS011;19094;50.972;3.538;2023-09-19T09:19:05;12.55;;;2.13;;
32705;SDS011;19094;50.972;3.538;2023-09-19T09:21:31;10.57;;;2.30;;
32705;SDS011;19094;50.972;3.538;2023-09-19T09:24:25;7.50;;;2.05;;
32705;SDS011;19094;50.972;3.538;2023-09-19T09:26:58;5.68;;;2.17;;
32705;SDS011;19094;50.972;3.538;2023-09-19T09:29:58;6.18;;;1.92;;
32705;SDS011;19094;50.972;3.538;2023-09-19T09:34:54;10.32;;;1.80;;
32705;SDS011;19094;50.972;3.538;2023-09-19T09:37:22;10.55;;;2.08;;
32705;SDS011;19094;50.972;3.538;2023-09-19T09:39:56;5.75;;;1.95;;
32705;SDS011;19094;50.972;3.538;2023-09-19T09:42:55;5.15;;;1.70;;
32705;SDS011;19094;50.972;3.538;2023-09-19T09:45:24;4.53;;;1.60;;
32705;SDS011;19094;50.972;3.538;2023-09-19T09:48:16;6.72;;;1.65;;
32705;SDS011;19094;50.972;3.538;2023-09-19T09:50:56;10.35;;;1.60;;
32705;SDS011;19094;50.972;3.538;2023-09-19T09:53:27;6.93;;;2.25;;
32705;SDS011;19094;50.972;3.538;2023-09-19T09:56:07;8.65;;;1.83;;
32705;SDS011;19094;50.972;3.538;2023-09-19T09:58:40;5.30;;;1.67;;
32705;SDS011;19094;50.972;3.538;2023-09-19T10:01:20;6.03;;;1.60;;
32705;SDS011;19094;50.972;3.538;2023-09-19T10:03:52;10.30;;;2.10;;
32705;SDS011;19094;50.972;3.538;2023-09-19T10:06:23;5.05;;;1.60;;
32705;SDS011;19094;50.972;3.538;2023-09-19T10:11:38;4.72;;;1.48;;
32705;SDS011;19094;50.972;3.538;2023-09-19T10:14:08;3.40;;;1.27;;
32705;SDS011;19094;50.972;3.538;2023-09-19T10:16:38;5.65;;;1.23;;
32705;SDS011;19094;50.972;3.538;2023-09-19T10:19:09;2.20;;;0.93;;
32705;SDS011;19094;50.972;3.538;2023-09-19T10:21:37;4.15;;;1.48;;
32705;SDS011;19094;50.972;3.538;2023-09-19T10:24:04;5.00;;;1.33;;
32705;SDS011;19094;50.972;3.538;2023-09-19T10:26:34;5.03;;;1.40;;
32705;SDS011;19094;50.972;3.538;2023-09-19T10:29:01;4.03;;;1.40;;
32705;SDS011;19094;50.972;3.538;2023-09-19T10:31:32;5.32;;;1.45;;
32705;SDS011;19094;50.972;3.538;2023-09-19T10:34:00;5.20;;;1.40;;
32705;SDS011;19094;50.972;3.538;2023-09-19T10:36:30;4.47;;;1.75;;
32705;SDS011;19094;50.972;3.538;2023-09-19T10:39:01;7.13;;;1.48;;
32705;SDS011;19094;50.972;3.538;2023-09-19T10:41:29;2.60;;;1.00;;
32705;SDS011;19094;50.972;3.538;2023-09-19T10:43:59;2.85;;;1.15;;
32705;SDS011;19094;50.972;3.538;2023-09-19T10:46:31;2.55;;;1.20;;
32705;SDS011;19094;50.972;3.538;2023-09-19T10:49:01;4.78;;;1.42;;
32705;SDS011;19094;50.972;3.538;2023-09-19T10:51:31;2.60;;;0.80;;
32705;SDS011;19094;50.972;3.538;2023-09-19T10:54:11;1.95;;;0.90;;
32705;SDS011;19094;50.972;3.538;2023-09-19T10:56:50;4.93;;;1.23;;
32705;SDS011;19094;50.972;3.538;2023-09-19T10:59:17;3.10;;;1.17;;
32705;SDS011;19094;50.972;3.538;2023-09-19T11:01:48;6.45;;;1.55;;
32705;SDS011;19094;50.972;3.538;2023-09-19T11:04:26;4.40;;;1.13;;
32705;SDS011;19094;50.972;3.538;2023-09-19T11:15:03;4.82;;;1.30;;
32705;SDS011;19094;50.972;3.538;2023-09-19T11:17:49;5.32;;;1.00;;
32705;SDS011;19094;50.972;3.538;2023-09-19T11:20:18;4.18;;;1.20;;
32705;SDS011;19094;50.972;3.538;2023-09-19T11:30:38;5.60;;;1.27;;
32705;SDS011;19094;50.972;3.538;2023-09-19T11:43:46;4.32;;;1.35;;
32705;SDS011;19094;50.972;3.538;2023-09-19T11:46:12;3.70;;;1.27;;
32705;SDS011;19094;50.972;3.538;2023-09-19T11:48:41;7.07;;;1.95;;
32705;SDS011;19094;50.972;3.538;2023-09-19T11:51:13;8.20;;;1.70;;
32705;SDS011;19094;50.972;3.538;2023-09-19T11:53:45;6.30;;;1.63;;
32705;SDS011;19094;50.972;3.538;2023-09-19T11:56:14;7.68;;;1.65;;
32705;SDS011;19094;50.972;3.538;2023-09-19T11:58:42;5.25;;;1.50;;
32705;SDS011;19094;50.972;3.538;2023-09-19T12:01:11;4.00;;;1.63;;
32705;SDS011;19094;50.972;3.538;2023-09-19T12:03:40;5.25;;;1.60;;
32705;SDS011;19094;50.972;3.538;2023-09-19T12:06:13;5.05;;;1.77;;
32705;SDS011;19094;50.972;3.538;2023-09-19T12:08:40;6.10;;;1.70;;
32705;SDS011;19094;50.972;3.538;2023-09-19T12:11:11;7.05;;;1.88;;
32705;SDS011;19094;50.972;3.538;2023-09-19T12:13:44;3.08;;;1.48;;
32705;SDS011;19094;50.972;3.538;2023-09-19T12:16:18;7.70;;;1.42;;
32705;SDS011;19094;50.972;3.538;2023-09-19T12:18:48;3.38;;;1.42;;
32705;SDS011;19094;50.972;3.538;2023-09-19T12:21:52;2.03;;;1.13;;
32705;SDS011;19094;50.972;3.538;2023-09-19T12:24:13;4.40;;;1.42;;
32705;SDS011;19094;50.972;3.538;2023-09-19T12:26:39;5.28;;;1.58;;
32705;SDS011;19094;50.972;3.538;2023-09-19T12:29:12;5.50;;;1.77;;
32705;SDS011;19094;50.972;3.538;2023-09-19T12:31:52;7.13;;;1.70;;
32705;SDS011;19094;50.972;3.538;2023-09-19T12:34:23;5.60;;;1.63;;
32705;SDS011;19094;50.972;3.538;2023-09-19T12:37:03;5.97;;;1.60;;
32705;SDS011;19094;50.972;3.538;2023-09-19T12:39:52;8.07;;;1.88;;
32705;SDS011;19094;50.972;3.538;2023-09-19T12:42:39;8.73;;;1.88;;
32705;SDS011;19094;50.972;3.538;2023-09-19T12:45:06;5.97;;;1.85;;
32705;SDS011;19094;50.972;3.538;2023-09-19T12:47:34;5.20;;;1.70;;
32705;SDS011;19094;50.972;3.538;2023-09-19T12:50:13;8.65;;;1.88;;
32705;SDS011;19094;50.972;3.538;2023-09-19T12:52:48;9.07;;;2.15;;
32705;SDS011;19094;50.972;3.538;2023-09-19T13:00:35;5.35;;;2.00;;
32705;SDS011;19094;50.972;3.538;2023-09-19T13:03:18;6.78;;;2.15;;
32705;SDS011;19094;50.972;3.538;2023-09-19T13:05:56;4.88;;;1.90;;
32705;SDS011;19094;50.972;3.538;2023-09-19T13:08:29;11.43;;;1.98;;
32705;SDS011;19094;50.972;3.538;2023-09-19T13:11:13;4.22;;;2.08;;
32705;SDS011;19094;50.972;3.538;2023-09-19T13:16:19;7.63;;;3.00;;
32705;SDS011;19094;50.972;3.538;2023-09-19T13:18:54;6.50;;;2.30;;
32705;SDS011;19094;50.972;3.538;2023-09-19T13:21:29;5.28;;;1.95;;
32705;SDS011;19094;50.972;3.538;2023-09-19T13:24:18;3.70;;;1.88;;
32705;SDS011;19094;50.972;3.538;2023-09-19T13:26:45;6.35;;;1.88;;
32705;SDS011;19094;50.972;3.538;2023-09-19T13:29:11;5.63;;;2.00;;
32705;SDS011;19094;50.972;3.538;2023-09-19T13:31:38;5.38;;;2.10;;
32705;SDS011;19094;50.972;3.538;2023-09-19T13:34:06;8.52;;;1.95;;
32705;SDS011;19094;50.972;3.538;2023-09-19T13:36:32;5.57;;;2.05;;
32705;SDS011;19094;50.972;3.538;2023-09-19T13:38:58;7.85;;;2.03;;
32705;SDS011;19094;50.972;3.538;2023-09-19T13:41:25;7.97;;;2.22;;
32705;SDS011;19094;50.972;3.538;2023-09-19T13:43:51;10.25;;;2.38;;
32705;SDS011;19094;50.972;3.538;2023-09-19T13:46:17;8.10;;;2.28;;
32705;SDS011;19094;50.972;3.538;2023-09-19T13:48:50;5.68;;;1.85;;
32705;SDS011;19094;50.972;3.538;2023-09-19T13:51:17;3.40;;;1.77;;
32705;SDS011;19094;50.972;3.538;2023-09-19T13:53:44;9.10;;;2.10;;
32705;SDS011;19094;50.972;3.538;2023-09-19T13:56:09;7.00;;;1.98;;
32705;SDS011;19094;50.972;3.538;2023-09-19T13:58:36;4.32;;;1.80;;
32705;SDS011;19094;50.972;3.538;2023-09-19T14:01:02;5.75;;;2.28;;
32705;SDS011;19094;50.972;3.538;2023-09-19T14:03:28;4.32;;;1.75;;
32705;SDS011;19094;50.972;3.538;2023-09-19T14:05:54;6.97;;;2.00;;
32705;SDS011;19094;50.972;3.538;2023-09-19T14:08:19;9.05;;;1.90;;
32705;SDS011;19094;50.972;3.538;2023-09-19T14:10:45;9.70;;;2.05;;
32705;SDS011;19094;50.972;3.538;2023-09-19T14:13:11;5.15;;;2.03;;
32705;SDS011;19094;50.972;3.538;2023-09-19T14:15:40;4.38;;;2.08;;
32705;SDS011;19094;50.972;3.538;2023-09-19T14:18:06;8.95;;;2.08;;
32705;SDS011;19094;50.972;3.538;2023-09-19T14:20:31;10.75;;;2.50;;
32705;SDS011;19094;50.972;3.538;2023-09-19T14:22:57;11.77;;;2.30;;
32705;SDS011;19094;50.972;3.538;2023-09-19T14:25:26;7.68;;;2.38;;
32705;SDS011;19094;50.972;3.538;2023-09-19T14:27:53;6.78;;;2.60;;
32705;SDS011;19094;50.972;3.538;2023-09-19T14:30:19;5.00;;;2.10;;
32705;SDS011;19094;50.972;3.538;2023-09-19T14:32:46;6.72;;;2.20;;
32705;SDS011;19094;50.972;3.538;2023-09-19T14:35:11;11.82;;;2.22;;
32705;SDS011;19094;50.972;3.538;2023-09-19T14:37:39;10.93;;;2.28;;
32705;SDS011;19094;50.972;3.538;2023-09-19T14:40:05;6.70;;;2.38;;
32705;SDS011;19094;50.972;3.538;2023-09-19T14:42:34;7.72;;;2.25;;
32705;SDS011;19094;50.972;3.538;2023-09-19T14:45:02;5.95;;;2.17;;
32705;SDS011;19094;50.972;3.538;2023-09-19T14:47:29;9.18;;;2.47;;
32705;SDS011;19094;50.972;3.538;2023-09-19T14:49:56;9.80;;;2.65;;
32705;SDS011;19094;50.972;3.538;2023-09-19T14:52:23;6.43;;;2.30;;
32705;SDS011;19094;50.972;3.538;2023-09-19T14:54:52;6.68;;;2.17;;
32705;SDS011;19094;50.972;3.538;2023-09-19T14:57:18;8.05;;;2.50;;
32705;SDS011;19094;50.972;3.538;2023-09-19T14:59:44;7.43;;;2.45;;
32705;SDS011;19094;50.972;3.538;2023-09-19T15:02:09;11.18;;;2.55;;
32705;SDS011;19094;50.972;3.538;2023-09-19T15:04:35;10.05;;;2.58;;
32705;SDS011;19094;50.972;3.538;2023-09-19T15:07:02;6.93;;;1.92;;
32705;SDS011;19094;50.972;3.538;2023-09-19T15:09:28;8.15;;;2.55;;
32705;SDS011;19094;50.972;3.538;2023-09-19T15:11:55;10.95;;;2.35;;
32705;SDS011;19094;50.972;3.538;2023-09-19T15:14:21;10.65;;;2.40;;
32705;SDS011;19094;50.972;3.538;2023-09-19T15:16:47;11.93;;;2.63;;
32705;SDS011;19094;50.972;3.538;2023-09-19T15:19:13;9.85;;;2.45;;
32705;SDS011;19094;50.972;3.538;2023-09-19T15:21:40;10.15;;;2.42;;
32705;SDS011;19094;50.972;3.538;2023-09-19T15:24:06;5.70;;;2.28;;
32705;SDS011;19094;50.972;3.538;2023-09-19T15:26:36;9.25;;;2.67;;
32705;SDS011;19094;50.972;3.538;2023-09-19T15:29:05;12.05;;;2.78;;
32705;SDS011;19094;50.972;3.538;2023-09-19T15:31:32;9.15;;;3.33;;
32705;SDS011;19094;50.972;3.538;2023-09-19T15:33:58;19.23;;;3.25;;
32705;SDS011;19094;50.972;3.538;2023-09-19T15:36:24;6.07;;;2.58;;
32705;SDS011;19094;50.972;3.538;2023-09-19T15:41:18;10.50;;;2.70;;
32705;SDS011;19094;50.972;3.538;2023-09-19T15:43:45;11.90;;;2.60;;
32705;SDS011;19094;50.972;3.538;2023-09-19T15:46:11;8.85;;;2.70;;
32705;SDS011;19094;50.972;3.538;2023-09-19T15:48:38;10.52;;;3.55;;
32705;SDS011;19094;50.972;3.538;2023-09-19T15:51:04;11.63;;;2.55;;
32705;SDS011;19094;50.972;3.538;2023-09-19T15:53:41;9.63;;;2.83;;
32705;SDS011;19094;50.972;3.538;2023-09-19T15:56:09;6.43;;;2.40;;
32705;SDS011;19094;50.972;3.538;2023-09-19T15:58:36;6.15;;;2.67;;
32705;SDS011;19094;50.972;3.538;2023-09-19T16:01:04;9.65;;;3.00;;